sensor_id;sensor_type;location;lat;lon;timestamp;P1;durP1;ratioP1;P2;durP2;ratioP2
42294;SDS011;27947;47.556;18.718;2022-08-01T00:01:23;1.95;;;1.38;;
42294;SDS011;27947;47.556;18.718;2022-08-01T00:03:48;1.83;;;1.55;;
42294;SDS011;27947;47.556;18.718;2022-08-01T00:06:13;2.40;;;1.88;;
42294;SDS011;27947;47.556;18.718;2022-08-01T00:08:39;2.90;;;1.65;;
42294;SDS011;27947;47.556;18.718;2022-08-01T00:11:04;3.15;;;1.95;;
42294;SDS011;27947;47.556;18.718;2022-08-01T00:13:30;2.42;;;1.40;;
42294;SDS011;27947;47.556;18.718;2022-08-01T00:15:55;2.40;;;1.75;;
42294;SDS011;27947;47.556;18.718;2022-08-01T00:18:20;2.35;;;1.50;;
42294;SDS011;27947;47.556;18.718;2022-08-01T00:20:46;2.88;;;1.92;;
42294;SDS011;27947;47.556;18.718;2022-08-01T00:23:12;2.05;;;1.40;;
42294;SDS011;27947;47.556;18.718;2022-08-01T00:25:37;2.67;;;1.55;;
42294;SDS011;27947;47.556;18.718;2022-08-01T00:28:03;3.60;;;2.05;;
42294;SDS011;27947;47.556;18.718;2022-08-01T00:30:28;4.15;;;1.73;;
42294;SDS011;27947;47.556;18.718;2022-08-01T00:32:54;2.63;;;1.75;;
42294;SDS011;27947;47.556;18.718;2022-08-01T00:35:19;2.92;;;1.77;;
42294;SDS011;27947;47.556;18.718;2022-08-01T00:37:44;3.03;;;1.67;;
42294;SDS011;27947;47.556;18.718;2022-08-01T00:40:10;2.65;;;1.85;;
42294;SDS011;27947;47.556;18.718;2022-08-01T00:42:35;3.70;;;1.88;;
42294;SDS011;27947;47.556;18.718;2022-08-01T00:45:01;5.13;;;1.65;;
42294;SDS011;27947;47.556;18.718;2022-08-01T00:47:26;3.83;;;1.63;;
42294;SDS011;27947;47.556;18.718;2022-08-01T00:49:51;2.60;;;1.70;;
42294;SDS011;27947;47.556;18.718;2022-08-01T00:52:17;4.35;;;1.83;;
42294;SDS011;27947;47.556;18.718;2022-08-01T00:54:43;1.55;;;1.20;;
42294;SDS011;27947;47.556;18.718;2022-08-01T00:57:08;1.85;;;1.50;;
42294;SDS011;27947;47.556;18.718;2022-08-01T00:59:34;3.47;;;1.60;;
42294;SDS011;27947;47.556;18.718;2022-08-01T01:02:00;5.47;;;2.20;;
42294;SDS011;27947;47.556;18.718;2022-08-01T01:04:25;2.28;;;1.50;;
42294;SDS011;27947;47.556;18.718;2022-08-01T01:09:39;2.72;;;1.92;;
42294;SDS011;27947;47.556;18.718;2022-08-01T01:14:59;5.25;;;1.80;;
42294;SDS011;27947;47.556;18.718;2022-08-01T01:17:37;2.83;;;1.58;;
42294;SDS011;27947;47.556;18.718;2022-08-01T01:20:04;3.72;;;2.03;;
42294;SDS011;27947;47.556;18.718;2022-08-01T01:22:36;3.08;;;1.80;;
42294;SDS011;27947;47.556;18.718;2022-08-01T01:25:06;2.85;;;1.40;;
42294;SDS011;27947;47.556;18.718;2022-08-01T01:27:39;3.35;;;1.73;;
42294;SDS011;27947;47.556;18.718;2022-08-01T01:30:07;2.78;;;1.75;;
42294;SDS011;27947;47.556;18.718;2022-08-01T01:32:35;2.38;;;1.65;;
42294;SDS011;27947;47.556;18.718;2022-08-01T01:35:05;2.40;;;1.70;;
42294;SDS011;27947;47.556;18.718;2022-08-01T01:37:31;1.88;;;1.63;;
42294;SDS011;27947;47.556;18.718;2022-08-01T01:39:58;1.77;;;1.23;;
42294;SDS011;27947;47.556;18.718;2022-08-01T01:42:25;1.63;;;1.38;;
42294;SDS011;27947;47.556;18.718;2022-08-01T01:44:50;2.85;;;1.63;;
42294;SDS011;27947;47.556;18.718;2022-08-01T01:47:16;4.10;;;1.92;;
42294;SDS011;27947;47.556;18.718;2022-08-01T01:49:42;5.18;;;1.90;;
42294;SDS011;27947;47.556;18.718;2022-08-01T01:52:08;2.75;;;1.90;;
42294;SDS011;27947;47.556;18.718;2022-08-01T01:54:36;1.83;;;1.60;;
42294;SDS011;27947;47.556;18.718;2022-08-01T01:57:03;2.15;;;1.85;;
42294;SDS011;27947;47.556;18.718;2022-08-01T01:59:30;4.18;;;1.60;;
42294;SDS011;27947;47.556;18.718;2022-08-01T02:01:57;2.08;;;1.70;;
42294;SDS011;27947;47.556;18.718;2022-08-01T02:04:24;2.47;;;1.88;;
42294;SDS011;27947;47.556;18.718;2022-08-01T02:06:50;3.58;;;1.75;;
42294;SDS011;27947;47.556;18.718;2022-08-01T02:09:17;2.42;;;1.58;;
42294;SDS011;27947;47.556;18.718;2022-08-01T02:11:44;1.52;;;1.42;;
42294;SDS011;27947;47.556;18.718;2022-08-01T02:14:10;2.72;;;1.48;;
42294;SDS011;27947;47.556;18.718;2022-08-01T02:16:36;6.32;;;1.67;;
42294;SDS011;27947;47.556;18.718;2022-08-01T02:19:04;8.32;;;2.05;;
42294;SDS011;27947;47.556;18.718;2022-08-01T02:21:31;2.58;;;1.63;;
42294;SDS011;27947;47.556;18.718;2022-08-01T02:24:00;2.30;;;1.48;;
42294;SDS011;27947;47.556;18.718;2022-08-01T02:26:28;2.70;;;2.00;;
42294;SDS011;27947;47.556;18.718;2022-08-01T02:28:55;3.80;;;1.92;;
42294;SDS011;27947;47.556;18.718;2022-08-01T02:31:22;2.88;;;1.35;;
42294;SDS011;27947;47.556;18.718;2022-08-01T02:33:57;2.72;;;1.50;;
42294;SDS011;27947;47.556;18.718;2022-08-01T02:36:25;2.15;;;1.60;;
42294;SDS011;27947;47.556;18.718;2022-08-01T02:38:51;1.77;;;1.40;;
42294;SDS011;27947;47.556;18.718;2022-08-01T02:41:19;2.60;;;1.30;;
42294;SDS011;27947;47.556;18.718;2022-08-01T02:43:45;2.00;;;1.55;;
42294;SDS011;27947;47.556;18.718;2022-08-01T02:46:13;3.38;;;1.75;;
42294;SDS011;27947;47.556;18.718;2022-08-01T02:48:41;4.68;;;1.60;;
42294;SDS011;27947;47.556;18.718;2022-08-01T02:51:07;2.22;;;1.60;;
42294;SDS011;27947;47.556;18.718;2022-08-01T02:53:34;3.60;;;1.92;;
42294;SDS011;27947;47.556;18.718;2022-08-01T02:56:03;2.13;;;1.60;;
42294;SDS011;27947;47.556;18.718;2022-08-01T02:58:29;2.88;;;1.83;;
42294;SDS011;27947;47.556;18.718;2022-08-01T03:00:55;2.45;;;1.50;;
42294;SDS011;27947;47.556;18.718;2022-08-01T03:03:21;4.93;;;1.52;;
42294;SDS011;27947;47.556;18.718;2022-08-01T03:05:47;3.25;;;2.05;;
42294;SDS011;27947;47.556;18.718;2022-08-01T03:08:13;6.53;;;1.90;;
42294;SDS011;27947;47.556;18.718;2022-08-01T03:10:41;3.53;;;1.67;;
42294;SDS011;27947;47.556;18.718;2022-08-01T03:13:08;2.55;;;1.85;;
42294;SDS011;27947;47.556;18.718;2022-08-01T03:15:34;2.45;;;1.45;;
42294;SDS011;27947;47.556;18.718;2022-08-01T03:18:00;3.22;;;1.80;;
42294;SDS011;27947;47.556;18.718;2022-08-01T03:20:27;4.45;;;2.22;;
42294;SDS011;27947;47.556;18.718;2022-08-01T03:22:54;3.85;;;1.90;;
42294;SDS011;27947;47.556;18.718;2022-08-01T03:25:21;3.42;;;2.20;;
42294;SDS011;27947;47.556;18.718;2022-08-01T03:27:51;3.28;;;2.28;;
42294;SDS011;27947;47.556;18.718;2022-08-01T03:30:19;3.25;;;2.20;;
42294;SDS011;27947;47.556;18.718;2022-08-01T03:32:45;3.42;;;2.05;;
42294;SDS011;27947;47.556;18.718;2022-08-01T03:35:11;5.15;;;2.35;;
42294;SDS011;27947;47.556;18.718;2022-08-01T03:37:38;3.05;;;2.35;;
42294;SDS011;27947;47.556;18.718;2022-08-01T03:40:07;8.07;;;2.85;;
42294;SDS011;27947;47.556;18.718;2022-08-01T03:42:38;5.03;;;2.20;;
42294;SDS011;27947;47.556;18.718;2022-08-01T03:45:07;2.85;;;2.42;;
42294;SDS011;27947;47.556;18.718;2022-08-01T03:47:35;4.43;;;2.40;;
42294;SDS011;27947;47.556;18.718;2022-08-01T03:50:04;3.78;;;2.10;;
42294;SDS011;27947;47.556;18.718;2022-08-01T03:52:31;4.72;;;2.58;;
42294;SDS011;27947;47.556;18.718;2022-08-01T03:54:58;4.95;;;2.60;;
42294;SDS011;27947;47.556;18.718;2022-08-01T03:57:24;3.63;;;2.60;;
42294;SDS011;27947;47.556;18.718;2022-08-01T03:59:53;3.40;;;2.40;;
42294;SDS011;27947;47.556;18.718;2022-08-01T04:02:19;3.00;;;2.38;;
42294;SDS011;27947;47.556;18.718;2022-08-01T04:04:44;4.00;;;2.50;;
42294;SDS011;27947;47.556;18.718;2022-08-01T04:07:26;14.88;;;2.78;;
42294;SDS011;27947;47.556;18.718;2022-08-01T04:09:52;3.22;;;2.10;;
42294;SDS011;27947;47.556;18.718;2022-08-01T04:12:17;3.60;;;2.45;;
42294;SDS011;27947;47.556;18.718;2022-08-01T04:14:43;10.32;;;3.42;;
42294;SDS011;27947;47.556;18.718;2022-08-01T04:17:08;4.88;;;2.58;;
42294;SDS011;27947;47.556;18.718;2022-08-01T04:19:34;3.72;;;2.40;;
42294;SDS011;27947;47.556;18.718;2022-08-01T04:21:59;5.18;;;2.67;;
42294;SDS011;27947;47.556;18.718;2022-08-01T04:24:25;5.38;;;2.55;;
42294;SDS011;27947;47.556;18.718;2022-08-01T04:26:52;4.82;;;2.70;;
42294;SDS011;27947;47.556;18.718;2022-08-01T04:29:18;3.88;;;2.45;;
42294;SDS011;27947;47.556;18.718;2022-08-01T04:31:45;3.38;;;2.40;;
42294;SDS011;27947;47.556;18.718;2022-08-01T04:34:11;2.78;;;2.40;;
42294;SDS011;27947;47.556;18.718;2022-08-01T04:36:37;3.88;;;2.83;;
42294;SDS011;27947;47.556;18.718;2022-08-01T04:39:03;3.25;;;2.67;;
42294;SDS011;27947;47.556;18.718;2022-08-01T04:41:29;4.70;;;2.70;;
42294;SDS011;27947;47.556;18.718;2022-08-01T04:43:55;8.13;;;2.63;;
42294;SDS011;27947;47.556;18.718;2022-08-01T04:46:24;4.20;;;2.80;;
42294;SDS011;27947;47.556;18.718;2022-08-01T04:48:49;4.05;;;2.67;;
42294;SDS011;27947;47.556;18.718;2022-08-01T04:51:16;4.68;;;2.58;;
42294;SDS011;27947;47.556;18.718;2022-08-01T04:53:42;3.53;;;2.78;;
42294;SDS011;27947;47.556;18.718;2022-08-01T04:56:07;3.05;;;2.40;;
42294;SDS011;27947;47.556;18.718;2022-08-01T04:58:33;3.38;;;2.85;;
42294;SDS011;27947;47.556;18.718;2022-08-01T05:00:58;3.90;;;2.50;;
42294;SDS011;27947;47.556;18.718;2022-08-01T05:03:23;5.47;;;2.40;;
42294;SDS011;27947;47.556;18.718;2022-08-01T05:05:49;5.07;;;2.30;;
42294;SDS011;27947;47.556;18.718;2022-08-01T05:08:14;5.07;;;2.95;;
42294;SDS011;27947;47.556;18.718;2022-08-01T05:10:41;4.55;;;2.70;;
42294;SDS011;27947;47.556;18.718;2022-08-01T05:13:06;4.03;;;2.80;;
42294;SDS011;27947;47.556;18.718;2022-08-01T05:15:32;3.65;;;2.47;;
42294;SDS011;27947;47.556;18.718;2022-08-01T05:17:57;2.65;;;2.03;;
42294;SDS011;27947;47.556;18.718;2022-08-01T05:20:23;2.63;;;2.35;;
42294;SDS011;27947;47.556;18.718;2022-08-01T05:22:48;3.67;;;2.40;;
42294;SDS011;27947;47.556;18.718;2022-08-01T05:25:14;2.35;;;2.05;;
42294;SDS011;27947;47.556;18.718;2022-08-01T05:27:39;4.18;;;2.05;;
42294;SDS011;27947;47.556;18.718;2022-08-01T05:30:08;4.63;;;2.15;;
42294;SDS011;27947;47.556;18.718;2022-08-01T05:32:33;3.45;;;1.90;;
42294;SDS011;27947;47.556;18.718;2022-08-01T05:34:59;2.58;;;2.00;;
42294;SDS011;27947;47.556;18.718;2022-08-01T05:37:24;2.90;;;2.30;;
42294;SDS011;27947;47.556;18.718;2022-08-01T05:39:50;2.38;;;1.95;;
42294;SDS011;27947;47.556;18.718;2022-08-01T05:42:15;4.90;;;2.38;;
42294;SDS011;27947;47.556;18.718;2022-08-01T05:44:41;4.32;;;1.75;;
42294;SDS011;27947;47.556;18.718;2022-08-01T05:47:06;3.83;;;2.00;;
42294;SDS011;27947;47.556;18.718;2022-08-01T05:49:31;2.60;;;2.03;;
42294;SDS011;27947;47.556;18.718;2022-08-01T05:51:57;3.63;;;1.83;;
42294;SDS011;27947;47.556;18.718;2022-08-01T05:54:22;2.42;;;1.88;;
42294;SDS011;27947;47.556;18.718;2022-08-01T05:56:47;2.53;;;2.03;;
42294;SDS011;27947;47.556;18.718;2022-08-01T05:59:13;7.07;;;2.17;;
42294;SDS011;27947;47.556;18.718;2022-08-01T06:01:38;4.00;;;2.08;;
42294;SDS011;27947;47.556;18.718;2022-08-01T06:04:04;3.70;;;2.47;;
42294;SDS011;27947;47.556;18.718;2022-08-01T06:06:29;7.25;;;2.53;;
42294;SDS011;27947;47.556;18.718;2022-08-01T06:08:54;19.38;;;3.60;;
42294;SDS011;27947;47.556;18.718;2022-08-01T06:11:20;5.72;;;2.55;;
42294;SDS011;27947;47.556;18.718;2022-08-01T06:13:45;5.43;;;3.40;;
42294;SDS011;27947;47.556;18.718;2022-08-01T06:16:10;3.60;;;2.10;;
42294;SDS011;27947;47.556;18.718;2022-08-01T06:18:36;4.03;;;2.55;;
42294;SDS011;27947;47.556;18.718;2022-08-01T06:21:01;6.63;;;2.80;;
42294;SDS011;27947;47.556;18.718;2022-08-01T06:23:27;7.72;;;2.25;;
42294;SDS011;27947;47.556;18.718;2022-08-01T06:25:52;4.35;;;2.30;;
42294;SDS011;27947;47.556;18.718;2022-08-01T06:28:19;3.53;;;2.30;;
42294;SDS011;27947;47.556;18.718;2022-08-01T06:30:44;14.15;;;2.55;;
42294;SDS011;27947;47.556;18.718;2022-08-01T06:33:09;8.88;;;2.10;;
42294;SDS011;27947;47.556;18.718;2022-08-01T06:35:35;34.80;;;4.63;;
42294;SDS011;27947;47.556;18.718;2022-08-01T06:38:01;9.30;;;2.20;;
42294;SDS011;27947;47.556;18.718;2022-08-01T06:40:27;6.97;;;1.95;;
42294;SDS011;27947;47.556;18.718;2022-08-01T06:42:52;11.52;;;2.40;;
42294;SDS011;27947;47.556;18.718;2022-08-01T06:45:18;11.40;;;3.70;;
42294;SDS011;27947;47.556;18.718;2022-08-01T06:47:44;19.80;;;3.13;;
42294;SDS011;27947;47.556;18.718;2022-08-01T06:50:10;3.88;;;2.30;;
42294;SDS011;27947;47.556;18.718;2022-08-01T06:52:35;4.07;;;2.20;;
42294;SDS011;27947;47.556;18.718;2022-08-01T06:55:01;5.85;;;2.22;;
